sensor_id;sensor_type;location;lat;lon;timestamp;pressure;altitude;pressure_sealevel;temperature;humidity
58668;BME280;59852;43.086;25.634;2023-07-30T00:01:06;98555.06;;;20.62;nan
58668;BME280;59852;43.086;25.634;2023-07-30T00:03:32;98548.38;;;20.89;nan
58668;BME280;59852;43.086;25.634;2023-07-30T00:05:57;98550.16;;;21.12;nan
58668;BME280;59852;43.086;25.634;2023-07-30T00:08:22;98546.50;;;21.13;nan
58668;BME280;59852;43.086;25.634;2023-07-30T00:10:48;98547.50;;;20.97;nan
58668;BME280;59852;43.086;25.634;2023-07-30T00:13:14;98544.00;;;20.97;nan
58668;BME280;59852;43.086;25.634;2023-07-30T00:15:39;98547.94;;;21.01;nan
58668;BME280;59852;43.086;25.634;2023-07-30T00:18:04;98551.03;;;20.75;nan
58668;BME280;59852;43.086;25.634;2023-07-30T00:20:30;98548.69;;;20.95;nan
58668;BME280;59852;43.086;25.634;2023-07-30T00:22:55;98548.50;;;20.96;nan
58668;BME280;59852;43.086;25.634;2023-07-30T00:25:20;98542.31;;;20.81;nan
58668;BME280;59852;43.086;25.634;2023-07-30T00:27:46;98546.53;;;20.75;nan
58668;BME280;59852;43.086;25.634;2023-07-30T00:30:11;98547.38;;;20.90;nan
58668;BME280;59852;43.086;25.634;2023-07-30T00:32:36;98547.41;;;21.05;nan
58668;BME280;59852;43.086;25.634;2023-07-30T00:35:05;98539.34;;;20.99;nan
58668;BME280;59852;43.086;25.634;2023-07-30T00:37:31;98545.53;;;20.76;nan
58668;BME280;59852;43.086;25.634;2023-07-30T00:39:56;98540.59;;;20.88;nan
58668;BME280;59852;43.086;25.634;2023-07-30T00:42:21;98541.91;;;21.07;nan
58668;BME280;59852;43.086;25.634;2023-07-30T00:44:47;98540.72;;;20.95;nan
58668;BME280;59852;43.086;25.634;2023-07-30T00:47:12;98535.03;;;20.98;nan
58668;BME280;59852;43.086;25.634;2023-07-30T00:49:37;98537.38;;;20.78;nan
58668;BME280;59852;43.086;25.634;2023-07-30T00:52:04;98539.09;;;20.48;nan
58668;BME280;59852;43.086;25.634;2023-07-30T00:54:30;98535.56;;;20.55;nan
58668;BME280;59852;43.086;25.634;2023-07-30T00:56:55;98531.34;;;20.61;nan
58668;BME280;59852;43.086;25.634;2023-07-30T00:59:20;98535.56;;;20.55;nan
58668;BME280;59852;43.086;25.634;2023-07-30T01:01:46;98538.09;;;20.41;nan
58668;BME280;59852;43.086;25.634;2023-07-30T01:04:13;98537.78;;;20.44;nan
58668;BME280;59852;43.086;25.634;2023-07-30T01:06:38;98534.16;;;20.37;nan
58668;BME280;59852;43.086;25.634;2023-07-30T01:09:04;98538.28;;;20.47;nan
58668;BME280;59852;43.086;25.634;2023-07-30T01:11:29;98543.91;;;20.44;nan
58668;BME280;59852;43.086;25.634;2023-07-30T01:13:55;98533.38;;;20.74;nan
58668;BME280;59852;43.086;25.634;2023-07-30T01:16:20;98535.84;;;20.60;nan
58668;BME280;59852;43.086;25.634;2023-07-30T01:18:46;98539.38;;;20.53;nan
58668;BME280;59852;43.086;25.634;2023-07-30T01:21:11;98530.31;;;20.47;nan
58668;BME280;59852;43.086;25.634;2023-07-30T01:23:37;98534.31;;;20.35;nan
58668;BME280;59852;43.086;25.634;2023-07-30T01:26:03;98535.25;;;20.50;nan
58668;BME280;59852;43.086;25.634;2023-07-30T01:28:32;98534.63;;;20.63;nan
58668;BME280;59852;43.086;25.634;2023-07-30T01:31:01;98536.47;;;20.62;nan
58668;BME280;59852;43.086;25.634;2023-07-30T01:33:28;98527.81;;;20.69;nan
58668;BME280;59852;43.086;25.634;2023-07-30T01:35:54;98537.72;;;20.52;nan
58668;BME280;59852;43.086;25.634;2023-07-30T01:38:20;98530.00;;;20.65;nan
58668;BME280;59852;43.086;25.634;2023-07-30T01:40:46;98533.06;;;20.54;nan
58668;BME280;59852;43.086;25.634;2023-07-30T01:43:12;98536.06;;;20.51;nan
58668;BME280;59852;43.086;25.634;2023-07-30T01:45:37;98529.69;;;20.37;nan
58668;BME280;59852;43.086;25.634;2023-07-30T01:48:03;98527.72;;;20.31;nan
58668;BME280;59852;43.086;25.634;2023-07-30T01:50:29;98527.84;;;20.38;nan
58668;BME280;59852;43.086;25.634;2023-07-30T01:52:54;98527.06;;;20.29;nan
58668;BME280;59852;43.086;25.634;2023-07-30T01:55:19;98526.84;;;20.16;nan
58668;BME280;59852;43.086;25.634;2023-07-30T01:57:45;98528.97;;;20.43;nan
58668;BME280;59852;43.086;25.634;2023-07-30T02:00:10;98520.06;;;20.36;nan
58668;BME280;59852;43.086;25.634;2023-07-30T02:02:36;98526.13;;;20.22;nan
58668;BME280;59852;43.086;25.634;2023-07-30T02:05:01;98520.75;;;20.07;nan
58668;BME280;59852;43.086;25.634;2023-07-30T02:07:27;98520.06;;;20.05;nan
58668;BME280;59852;43.086;25.634;2023-07-30T02:09:52;98528.94;;;20.20;nan
58668;BME280;59852;43.086;25.634;2023-07-30T02:12:18;98524.44;;;19.98;nan
58668;BME280;59852;43.086;25.634;2023-07-30T02:14:43;98522.03;;;19.80;nan
58668;BME280;59852;43.086;25.634;2023-07-30T02:17:08;98517.69;;;19.87;nan
58668;BME280;59852;43.086;25.634;2023-07-30T02:19:34;98526.22;;;19.66;nan
58668;BME280;59852;43.086;25.634;2023-07-30T02:21:59;98523.44;;;19.99;nan
58668;BME280;59852;43.086;25.634;2023-07-30T02:24:24;98522.28;;;19.93;nan
58668;BME280;59852;43.086;25.634;2023-07-30T02:26:49;98523.13;;;19.94;nan
58668;BME280;59852;43.086;25.634;2023-07-30T02:29:15;98522.25;;;19.70;nan
58668;BME280;59852;43.086;25.634;2023-07-30T02:31:40;98526.00;;;19.84;nan
58668;BME280;59852;43.086;25.634;2023-07-30T02:34:05;98531.31;;;19.76;nan
58668;BME280;59852;43.086;25.634;2023-07-30T02:36:32;98526.59;;;19.94;nan
58668;BME280;59852;43.086;25.634;2023-07-30T02:38:58;98529.66;;;19.83;nan
58668;BME280;59852;43.086;25.634;2023-07-30T02:41:23;98532.81;;;19.87;nan
58668;BME280;59852;43.086;25.634;2023-07-30T02:43:49;98530.25;;;19.62;nan
58668;BME280;59852;43.086;25.634;2023-07-30T02:46:14;98532.84;;;19.79;nan
58668;BME280;59852;43.086;25.634;2023-07-30T02:48:39;98534.31;;;19.81;nan
58668;BME280;59852;43.086;25.634;2023-07-30T02:51:04;98532.25;;;19.60;nan
58668;BME280;59852;43.086;25.634;2023-07-30T02:53:30;98531.88;;;19.55;nan
58668;BME280;59852;43.086;25.634;2023-07-30T02:55:56;98532.06;;;19.62;nan
58668;BME280;59852;43.086;25.634;2023-07-30T02:58:21;98530.13;;;19.39;nan
58668;BME280;59852;43.086;25.634;2023-07-30T03:00:46;98538.41;;;19.36;nan
58668;BME280;59852;43.086;25.634;2023-07-30T03:03:11;98540.34;;;18.79;nan
58668;BME280;59852;43.086;25.634;2023-07-30T03:05:37;98542.13;;;18.86;nan
58668;BME280;59852;43.086;25.634;2023-07-30T03:08:06;98547.44;;;18.86;nan
58668;BME280;59852;43.086;25.634;2023-07-30T03:10:31;98545.63;;;18.87;nan
58668;BME280;59852;43.086;25.634;2023-07-30T03:12:57;98553.03;;;19.16;nan
58668;BME280;59852;43.086;25.634;2023-07-30T03:15:22;98556.38;;;19.02;nan
58668;BME280;59852;43.086;25.634;2023-07-30T03:17:47;98555.03;;;19.06;nan
58668;BME280;59852;43.086;25.634;2023-07-30T03:20:13;98557.03;;;19.04;nan
58668;BME280;59852;43.086;25.634;2023-07-30T03:22:38;98564.81;;;19.22;nan
58668;BME280;59852;43.086;25.634;2023-07-30T03:25:03;98563.59;;;19.57;nan
58668;BME280;59852;43.086;25.634;2023-07-30T03:27:29;98555.94;;;19.45;nan
58668;BME280;59852;43.086;25.634;2023-07-30T03:29:54;98560.44;;;19.45;nan
58668;BME280;59852;43.086;25.634;2023-07-30T03:32:19;98559.78;;;19.43;nan
58668;BME280;59852;43.086;25.634;2023-07-30T03:34:45;98558.16;;;19.34;nan
58668;BME280;59852;43.086;25.634;2023-07-30T03:37:10;98554.19;;;19.22;nan
58668;BME280;59852;43.086;25.634;2023-07-30T03:39:35;98563.03;;;18.98;nan
58668;BME280;59852;43.086;25.634;2023-07-30T03:42:01;98559.47;;;19.38;nan
58668;BME280;59852;43.086;25.634;2023-07-30T03:44:26;98557.53;;;19.07;nan
58668;BME280;59852;43.086;25.634;2023-07-30T03:46:51;98559.94;;;19.49;nan
58668;BME280;59852;43.086;25.634;2023-07-30T03:49:17;98559.44;;;19.46;nan
58668;BME280;59852;43.086;25.634;2023-07-30T03:51:42;98558.78;;;19.44;nan
58668;BME280;59852;43.086;25.634;2023-07-30T03:54:07;98565.75;;;19.37;nan
58668;BME280;59852;43.086;25.634;2023-07-30T03:56:33;98563.84;;;19.78;nan
58668;BME280;59852;43.086;25.634;2023-07-30T03:58:58;98571.25;;;19.91;nan
58668;BME280;59852;43.086;25.634;2023-07-30T04:01:23;98569.97;;;19.87;nan
58668;BME280;59852;43.086;25.634;2023-07-30T04:03:49;98572.47;;;19.80;nan
58668;BME280;59852;43.086;25.634;2023-07-30T04:06:14;98570.31;;;19.75;nan
58668;BME280;59852;43.086;25.634;2023-07-30T04:08:39;98571.03;;;20.00;nan
58668;BME280;59852;43.086;25.634;2023-07-30T04:11:05;98573.69;;;20.00;nan
58668;BME280;59852;43.086;25.634;2023-07-30T04:13:30;98579.22;;;19.91;nan
58668;BME280;59852;43.086;25.634;2023-07-30T04:15:55;98578.03;;;20.24;nan
58668;BME280;59852;43.086;25.634;2023-07-30T04:18:21;98571.47;;;20.12;nan
58668;BME280;59852;43.086;25.634;2023-07-30T04:20:47;98586.53;;;18.84;nan
58668;BME280;59852;43.086;25.634;2023-07-30T04:23:13;98578.34;;;19.59;nan
58668;BME280;59852;43.086;25.634;2023-07-30T04:25:38;98583.16;;;19.95;nan
58668;BME280;59852;43.086;25.634;2023-07-30T04:28:03;98585.63;;;19.49;nan
58668;BME280;59852;43.086;25.634;2023-07-30T04:30:28;98590.81;;;19.26;nan
58668;BME280;59852;43.086;25.634;2023-07-30T04:32:54;98584.94;;;19.71;nan
58668;BME280;59852;43.086;25.634;2023-07-30T04:35:19;98590.31;;;20.25;nan
58668;BME280;59852;43.086;25.634;2023-07-30T04:37:44;98590.94;;;20.67;nan
58668;BME280;59852;43.086;25.634;2023-07-30T04:40:10;98586.97;;;20.62;nan
58668;BME280;59852;43.086;25.634;2023-07-30T04:42:35;98600.97;;;20.56;nan
58668;BME280;59852;43.086;25.634;2023-07-30T04:45:01;98606.81;;;20.52;nan
58668;BME280;59852;43.086;25.634;2023-07-30T04:47:26;98603.47;;;19.88;nan
58668;BME280;59852;43.086;25.634;2023-07-30T04:49:51;98598.97;;;20.58;nan
58668;BME280;59852;43.086;25.634;2023-07-30T04:52:18;98603.97;;;20.99;nan
58668;BME280;59852;43.086;25.634;2023-07-30T04:54:43;98604.53;;;21.09;nan
58668;BME280;59852;43.086;25.634;2023-07-30T04:57:09;98611.56;;;21.25;nan
58668;BME280;59852;43.086;25.634;2023-07-30T04:59:34;98611.50;;;21.33;nan
58668;BME280;59852;43.086;25.634;2023-07-30T05:02:00;98602.28;;;21.44;nan
58668;BME280;59852;43.086;25.634;2023-07-30T05:04:25;98608.16;;;21.54;nan
58668;BME280;59852;43.086;25.634;2023-07-30T05:06:50;98599.88;;;21.49;nan
58668;BME280;59852;43.086;25.634;2023-07-30T05:09:16;98599.94;;;21.41;nan
58668;BME280;59852;43.086;25.634;2023-07-30T05:11:41;98590.78;;;21.58;nan
58668;BME280;59852;43.086;25.634;2023-07-30T05:14:06;98585.56;;;21.65;nan
58668;BME280;59852;43.086;25.634;2023-07-30T05:16:32;98588.44;;;21.63;nan
58668;BME280;59852;43.086;25.634;2023-07-30T05:18:57;98587.00;;;21.82;nan
58668;BME280;59852;43.086;25.634;2023-07-30T05:21:22;98578.59;;;21.93;nan
58668;BME280;59852;43.086;25.634;2023-07-30T05:23:47;98579.44;;;21.64;nan
58668;BME280;59852;43.086;25.634;2023-07-30T05:26:13;98582.63;;;21.74;nan
58668;BME280;59852;43.086;25.634;2023-07-30T05:28:38;98573.25;;;21.93;nan
58668;BME280;59852;43.086;25.634;2023-07-30T05:31:03;98588.56;;;22.21;nan
58668;BME280;59852;43.086;25.634;2023-07-30T05:33:29;98585.72;;;22.22;nan
58668;BME280;59852;43.086;25.634;2023-07-30T05:35:55;98576.00;;;22.15;nan
58668;BME280;59852;43.086;25.634;2023-07-30T05:38:20;98584.91;;;21.92;nan
58668;BME280;59852;43.086;25.634;2023-07-30T05:40:45;98585.44;;;22.17;nan
58668;BME280;59852;43.086;25.634;2023-07-30T05:43:11;98588.25;;;22.30;nan
58668;BME280;59852;43.086;25.634;2023-07-30T05:45:36;98591.72;;;21.65;nan
58668;BME280;59852;43.086;25.634;2023-07-30T05:48:01;98598.41;;;22.05;nan
58668;BME280;59852;43.086;25.634;2023-07-30T05:50:27;98594.38;;;22.46;nan
58668;BME280;59852;43.086;25.634;2023-07-30T05:52:52;98600.88;;;22.58;nan
58668;BME280;59852;43.086;25.634;2023-07-30T05:55:17;98604.91;;;22.32;nan
58668;BME280;59852;43.086;25.634;2023-07-30T05:57:43;98605.19;;;22.23;nan
58668;BME280;59852;43.086;25.634;2023-07-30T06:00:08;98608.63;;;22.74;nan
58668;BME280;59852;43.086;25.634;2023-07-30T06:02:34;98598.34;;;21.84;nan
58668;BME280;59852;43.086;25.634;2023-07-30T06:04:59;98603.13;;;22.40;nan
58668;BME280;59852;43.086;25.634;2023-07-30T06:07:24;98602.81;;;22.85;nan
58668;BME280;59852;43.086;25.634;2023-07-30T06:09:50;98594.38;;;23.10;nan
58668;BME280;59852;43.086;25.634;2023-07-30T06:12:15;98593.69;;;23.23;nan
58668;BME280;59852;43.086;25.634;2023-07-30T06:14:40;98599.06;;;23.29;nan
58668;BME280;59852;43.086;25.634;2023-07-30T06:17:06;98593.13;;;23.06;nan
58668;BME280;59852;43.086;25.634;2023-07-30T06:19:31;98593.84;;;23.42;nan
58668;BME280;59852;43.086;25.634;2023-07-30T06:21:56;98591.78;;;23.44;nan
58668;BME280;59852;43.086;25.634;2023-07-30T06:24:21;98587.31;;;23.52;nan
58668;BME280;59852;43.086;25.634;2023-07-30T06:26:47;98592.38;;;23.68;nan
58668;BME280;59852;43.086;25.634;2023-07-30T06:29:12;98591.66;;;23.87;nan
58668;BME280;59852;43.086;25.634;2023-07-30T06:31:37;98584.91;;;23.91;nan
58668;BME280;59852;43.086;25.634;2023-07-30T06:34:03;98588.97;;;23.87;nan
58668;BME280;59852;43.086;25.634;2023-07-30T06:36:28;98589.84;;;23.94;nan
58668;BME280;59852;43.086;25.634;2023-07-30T06:38:54;98580.84;;;24.09;nan
58668;BME280;59852;43.086;25.634;2023-07-30T06:41:19;98575.75;;;24.14;nan
58668;BME280;59852;43.086;25.634;2023-07-30T06:43:44;98580.03;;;23.60;nan
58668;BME280;59852;43.086;25.634;2023-07-30T06:46:10;98571.31;;;23.52;nan
58668;BME280;59852;43.086;25.634;2023-07-30T06:48:35;98579.44;;;24.13;nan
58668;BME280;59852;43.086;25.634;2023-07-30T06:51:00;98577.72;;;24.40;nan
58668;BME280;59852;43.086;25.634;2023-07-30T06:53:26;98577.09;;;24.44;nan
58668;BME280;59852;43.086;25.634;2023-07-30T06:55:51;98578.13;;;24.56;nan
58668;BME280;59852;43.086;25.634;2023-07-30T06:58:16;98574.66;;;24.63;nan
58668;BME280;59852;43.086;25.634;2023-07-30T07:00:41;98574.88;;;24.74;nan
58668;BME280;59852;43.086;25.634;2023-07-30T07:03:07;98567.69;;;24.81;nan
58668;BME280;59852;43.086;25.634;2023-07-30T07:05:32;98565.84;;;24.95;nan
58668;BME280;59852;43.086;25.634;2023-07-30T07:07:57;98567.31;;;25.11;nan
58668;BME280;59852;43.086;25.634;2023-07-30T07:10:23;98556.81;;;25.23;nan
58668;BME280;59852;43.086;25.634;2023-07-30T07:12:48;98556.34;;;25.45;nan
58668;BME280;59852;43.086;25.634;2023-07-30T07:15:13;98557.16;;;25.53;nan
58668;BME280;59852;43.086;25.634;2023-07-30T07:17:39;98544.56;;;25.66;nan
58668;BME280;59852;43.086;25.634;2023-07-30T07:20:05;98551.13;;;25.84;nan
58668;BME280;59852;43.086;25.634;2023-07-30T07:22:31;98551.19;;;25.70;nan
58668;BME280;59852;43.086;25.634;2023-07-30T07:24:57;98547.25;;;25.66;nan
58668;BME280;59852;43.086;25.634;2023-07-30T07:27:22;98540.41;;;25.84;nan
58668;BME280;59852;43.086;25.634;2023-07-30T07:29:49;98539.50;;;26.03;nan
58668;BME280;59852;43.086;25.634;2023-07-30T07:32:14;98537.53;;;26.23;nan
58668;BME280;59852;43.086;25.634;2023-07-30T07:34:40;98538.72;;;26.41;nan
58668;BME280;59852;43.086;25.634;2023-07-30T07:37:05;98535.19;;;26.47;nan
58668;BME280;59852;43.086;25.634;2023-07-30T07:39:32;98536.81;;;26.48;nan
58668;BME280;59852;43.086;25.634;2023-07-30T07:41:57;98525.84;;;26.81;nan
58668;BME280;59852;43.086;25.634;2023-07-30T07:44:22;98525.59;;;26.82;nan
58668;BME280;59852;43.086;25.634;2023-07-30T07:46:48;98530.25;;;26.94;nan
58668;BME280;59852;43.086;25.634;2023-07-30T07:49:13;98525.34;;;26.91;nan
58668;BME280;59852;43.086;25.634;2023-07-30T07:51:38;98528.94;;;27.09;nan
58668;BME280;59852;43.086;25.634;2023-07-30T07:54:04;98518.56;;;27.13;nan
58668;BME280;59852;43.086;25.634;2023-07-30T07:56:30;98515.31;;;27.29;nan
58668;BME280;59852;43.086;25.634;2023-07-30T07:58:55;98514.19;;;27.37;nan
58668;BME280;59852;43.086;25.634;2023-07-30T08:01:20;98511.44;;;27.62;nan
58668;BME280;59852;43.086;25.634;2023-07-30T08:03:46;98518.38;;;27.51;nan
58668;BME280;59852;43.086;25.634;2023-07-30T08:06:11;98514.97;;;27.81;nan
58668;BME280;59852;43.086;25.634;2023-07-30T08:08:36;98514.09;;;27.68;nan
58668;BME280;59852;43.086;25.634;2023-07-30T08:11:05;98511.50;;;27.92;nan
58668;BME280;59852;43.086;25.634;2023-07-30T08:13:32;98508.16;;;27.96;nan
58668;BME280;59852;43.086;25.634;2023-07-30T08:15:57;98506.06;;;27.98;nan
58668;BME280;59852;43.086;25.634;2023-07-30T08:18:22;98506.13;;;28.22;nan
58668;BME280;59852;43.086;25.634;2023-07-30T08:20:49;98509.84;;;28.39;nan
58668;BME280;59852;43.086;25.634;2023-07-30T08:23:14;98501.44;;;28.36;nan
58668;BME280;59852;43.086;25.634;2023-07-30T08:25:39;98505.66;;;28.43;nan
58668;BME280;59852;43.086;25.634;2023-07-30T08:28:05;98501.69;;;28.46;nan
58668;BME280;59852;43.086;25.634;2023-07-30T08:30:30;98493.38;;;28.47;nan
58668;BME280;59852;43.086;25.634;2023-07-30T08:32:55;98506.41;;;28.62;nan
58668;BME280;59852;43.086;25.634;2023-07-30T08:35:20;98503.50;;;28.64;nan
58668;BME280;59852;43.086;25.634;2023-07-30T08:37:46;98492.59;;;28.70;nan
58668;BME280;59852;43.086;25.634;2023-07-30T08:40:11;98498.88;;;29.06;nan
58668;BME280;59852;43.086;25.634;2023-07-30T08:42:36;98484.00;;;29.03;nan
58668;BME280;59852;43.086;25.634;2023-07-30T08:45:04;98489.72;;;29.19;nan
58668;BME280;59852;43.086;25.634;2023-07-30T08:47:31;98485.50;;;28.99;nan
58668;BME280;59852;43.086;25.634;2023-07-30T08:49:56;98486.09;;;29.48;nan
58668;BME280;59852;43.086;25.634;2023-07-30T08:52:21;98476.25;;;29.42;nan
58668;BME280;59852;43.086;25.634;2023-07-30T08:54:49;98478.41;;;29.68;nan
58668;BME280;59852;43.086;25.634;2023-07-30T08:57:16;98481.22;;;30.14;nan
58668;BME280;59852;43.086;25.634;2023-07-30T08:59:42;98470.81;;;29.65;nan
58668;BME280;59852;43.086;25.634;2023-07-30T09:02:17;98472.19;;;29.68;nan
58668;BME280;59852;43.086;25.634;2023-07-30T09:04:43;98478.34;;;29.92;nan
58668;BME280;59852;43.086;25.634;2023-07-30T09:07:11;98477.38;;;29.69;nan
58668;BME280;59852;43.086;25.634;2023-07-30T09:09:36;98474.53;;;29.76;nan
58668;BME280;59852;43.086;25.634;2023-07-30T09:12:02;98472.38;;;30.18;nan
58668;BME280;59852;43.086;25.634;2023-07-30T09:14:27;98466.59;;;30.10;nan
58668;BME280;59852;43.086;25.634;2023-07-30T09:16:56;98461.78;;;30.00;nan
58668;BME280;59852;43.086;25.634;2023-07-30T09:19:21;98458.81;;;30.13;nan
58668;BME280;59852;43.086;25.634;2023-07-30T09:21:46;98454.09;;;30.54;nan
58668;BME280;59852;43.086;25.634;2023-07-30T09:24:12;98450.69;;;30.42;nan
58668;BME280;59852;43.086;25.634;2023-07-30T09:26:43;98447.41;;;30.40;nan
58668;BME280;59852;43.086;25.634;2023-07-30T09:29:09;98443.81;;;30.68;nan
58668;BME280;59852;43.086;25.634;2023-07-30T09:31:48;98445.75;;;30.22;nan
58668;BME280;59852;43.086;25.634;2023-07-30T09:34:16;98439.59;;;30.72;nan
58668;BME280;59852;43.086;25.634;2023-07-30T09:36:44;98432.69;;;30.81;nan
58668;BME280;59852;43.086;25.634;2023-07-30T09:39:25;98435.03;;;30.94;nan
58668;BME280;59852;43.086;25.634;2023-07-30T09:41:51;98433.56;;;30.87;nan
58668;BME280;59852;43.086;25.634;2023-07-30T09:44:17;98430.88;;;30.87;nan
58668;BME280;59852;43.086;25.634;2023-07-30T09:46:44;98430.06;;;30.86;nan
58668;BME280;59852;43.086;25.634;2023-07-30T09:49:09;98426.41;;;30.75;nan
58668;BME280;59852;43.086;25.634;2023-07-30T09:51:36;98427.72;;;30.73;nan
58668;BME280;59852;43.086;25.634;2023-07-30T09:54:02;98424.06;;;31.01;nan
58668;BME280;59852;43.086;25.634;2023-07-30T09:56:28;98420.34;;;30.51;nan
58668;BME280;59852;43.086;25.634;2023-07-30T09:58:53;98413.66;;;30.71;nan
58668;BME280;59852;43.086;25.634;2023-07-30T10:01:18;98414.91;;;31.02;nan
58668;BME280;59852;43.086;25.634;2023-07-30T10:03:47;98404.06;;;31.19;nan
58668;BME280;59852;43.086;25.634;2023-07-30T10:06:13;98407.16;;;30.89;nan
58668;BME280;59852;43.086;25.634;2023-07-30T10:08:39;98403.16;;;31.13;nan
58668;BME280;59852;43.086;25.634;2023-07-30T10:11:07;98399.94;;;31.33;nan
58668;BME280;59852;43.086;25.634;2023-07-30T10:13:33;98389.06;;;31.28;nan
58668;BME280;59852;43.086;25.634;2023-07-30T10:15:59;98386.66;;;31.31;nan
58668;BME280;59852;43.086;25.634;2023-07-30T10:18:40;98385.97;;;31.19;nan
58668;BME280;59852;43.086;25.634;2023-07-30T10:21:09;98382.09;;;31.32;nan
58668;BME280;59852;43.086;25.634;2023-07-30T10:23:35;98381.47;;;31.47;nan
58668;BME280;59852;43.086;25.634;2023-07-30T10:26:10;98378.25;;;31.28;nan
58668;BME280;59852;43.086;25.634;2023-07-30T10:28:35;98373.94;;;31.54;nan
58668;BME280;59852;43.086;25.634;2023-07-30T10:31:07;98374.81;;;31.59;nan
58668;BME280;59852;43.086;25.634;2023-07-30T10:33:56;98371.50;;;31.52;nan
58668;BME280;59852;43.086;25.634;2023-07-30T10:36:35;98367.84;;;31.63;nan
58668;BME280;59852;43.086;25.634;2023-07-30T10:39:11;98362.72;;;31.40;nan
58668;BME280;59852;43.086;25.634;2023-07-30T10:41:37;98364.97;;;31.48;nan
58668;BME280;59852;43.086;25.634;2023-07-30T10:44:02;98366.66;;;31.76;nan
58668;BME280;59852;43.086;25.634;2023-07-30T10:46:28;98358.59;;;31.59;nan
58668;BME280;59852;43.086;25.634;2023-07-30T10:48:53;98359.00;;;31.73;nan
58668;BME280;59852;43.086;25.634;2023-07-30T10:51:19;98357.19;;;32.06;nan
58668;BME280;59852;43.086;25.634;2023-07-30T10:53:46;98360.91;;;32.00;nan
58668;BME280;59852;43.086;25.634;2023-07-30T10:56:12;98356.28;;;32.27;nan
58668;BME280;59852;43.086;25.634;2023-07-30T10:58:37;98358.78;;;32.34;nan
58668;BME280;59852;43.086;25.634;2023-07-30T11:01:06;98357.47;;;32.36;nan
58668;BME280;59852;43.086;25.634;2023-07-30T11:03:32;98350.28;;;32.25;nan
58668;BME280;59852;43.086;25.634;2023-07-30T11:05:58;98349.97;;;31.62;nan
58668;BME280;59852;43.086;25.634;2023-07-30T11:08:36;98352.50;;;31.69;nan
58668;BME280;59852;43.086;25.634;2023-07-30T11:11:02;98358.97;;;31.95;nan
58668;BME280;59852;43.086;25.634;2023-07-30T11:13:27;98353.63;;;32.32;nan
58668;BME280;59852;43.086;25.634;2023-07-30T11:15:52;98337.59;;;32.63;nan
58668;BME280;59852;43.086;25.634;2023-07-30T11:18:18;98344.50;;;32.43;nan
58668;BME280;59852;43.086;25.634;2023-07-30T11:20:43;98337.78;;;32.51;nan
58668;BME280;59852;43.086;25.634;2023-07-30T11:23:21;98335.78;;;32.78;nan
58668;BME280;59852;43.086;25.634;2023-07-30T11:25:50;98342.53;;;32.34;nan
58668;BME280;59852;43.086;25.634;2023-07-30T11:28:28;98337.69;;;32.36;nan
58668;BME280;59852;43.086;25.634;2023-07-30T11:30:55;98333.66;;;32.38;nan
58668;BME280;59852;43.086;25.634;2023-07-30T11:33:20;98326.16;;;32.50;nan
58668;BME280;59852;43.086;25.634;2023-07-30T11:35:46;98320.94;;;32.39;nan
58668;BME280;59852;43.086;25.634;2023-07-30T11:38:11;98324.34;;;32.66;nan
58668;BME280;59852;43.086;25.634;2023-07-30T11:40:38;98320.47;;;32.52;nan
58668;BME280;59852;43.086;25.634;2023-07-30T11:43:04;98319.13;;;32.54;nan
58668;BME280;59852;43.086;25.634;2023-07-30T11:45:29;98324.72;;;32.43;nan
58668;BME280;59852;43.086;25.634;2023-07-30T11:47:55;98320.06;;;31.96;nan
58668;BME280;59852;43.086;25.634;2023-07-30T11:56:18;98302.38;;;32.63;nan
58668;BME280;59852;43.086;25.634;2023-07-30T11:58:45;98298.63;;;32.74;nan
58668;BME280;59852;43.086;25.634;2023-07-30T12:01:10;98286.84;;;32.90;nan
58668;BME280;59852;43.086;25.634;2023-07-30T12:03:37;98296.41;;;32.56;nan
58668;BME280;59852;43.086;25.634;2023-07-30T12:06:05;98296.75;;;32.27;nan
58668;BME280;59852;43.086;25.634;2023-07-30T12:08:31;98293.13;;;32.53;nan
58668;BME280;59852;43.086;25.634;2023-07-30T12:11:01;98285.41;;;32.30;nan
58668;BME280;59852;43.086;25.634;2023-07-30T12:13:27;98276.38;;;32.62;nan
58668;BME280;59852;43.086;25.634;2023-07-30T12:15:52;98279.28;;;32.08;nan
58668;BME280;59852;43.086;25.634;2023-07-30T12:18:18;98274.22;;;32.21;nan
58668;BME280;59852;43.086;25.634;2023-07-30T12:20:45;98279.19;;;32.35;nan
58668;BME280;59852;43.086;25.634;2023-07-30T12:23:10;98270.31;;;32.39;nan
58668;BME280;59852;43.086;25.634;2023-07-30T12:25:35;98255.84;;;32.71;nan
58668;BME280;59852;43.086;25.634;2023-07-30T12:28:01;98262.84;;;32.62;nan
58668;BME280;59852;43.086;25.634;2023-07-30T12:30:26;98257.50;;;32.82;nan
58668;BME280;59852;43.086;25.634;2023-07-30T12:32:52;98263.34;;;33.06;nan
58668;BME280;59852;43.086;25.634;2023-07-30T12:35:18;98263.25;;;32.86;nan
58668;BME280;59852;43.086;25.634;2023-07-30T12:37:43;98239.59;;;32.71;nan
58668;BME280;59852;43.086;25.634;2023-07-30T12:40:09;98254.44;;;32.58;nan
58668;BME280;59852;43.086;25.634;2023-07-30T12:42:34;98245.25;;;32.59;nan
58668;BME280;59852;43.086;25.634;2023-07-30T12:44:59;98247.34;;;33.04;nan
58668;BME280;59852;43.086;25.634;2023-07-30T12:47:25;98240.06;;;32.52;nan
58668;BME280;59852;43.086;25.634;2023-07-30T12:49:50;98237.84;;;32.44;nan
58668;BME280;59852;43.086;25.634;2023-07-30T12:52:15;98233.09;;;32.67;nan
58668;BME280;59852;43.086;25.634;2023-07-30T12:54:41;98230.38;;;32.72;nan
58668;BME280;59852;43.086;25.634;2023-07-30T12:57:06;98237.25;;;32.90;nan
58668;BME280;59852;43.086;25.634;2023-07-30T12:59:31;98231.25;;;32.82;nan
58668;BME280;59852;43.086;25.634;2023-07-30T13:01:57;98223.78;;;33.05;nan
58668;BME280;59852;43.086;25.634;2023-07-30T13:04:23;98222.16;;;33.14;nan
58668;BME280;59852;43.086;25.634;2023-07-30T13:06:49;98232.47;;;33.32;nan
58668;BME280;59852;43.086;25.634;2023-07-30T13:09:14;98223.25;;;33.18;nan